Time;durP1;ratioP1;P1;durP2;ratioP2;P2;SDS_P1;SDS_P2;PMS_P1;PMS_P2;Temp;Humidity;BMP_temperature;BMP_pressure;BME280_temperature;BME280_humidity;BME280_pressure;Samples;Min_cycle;Max_cycle;Signal;HPM_P1;HPM_P2
2022/07/15 00:00:36;;;;;;;5.88;1.45;;;16.40;55.50;;;;;;5111347;28;20043;-69
2022/07/15 00:03:01;;;;;;;2.50;0.90;;;16.40;55.60;;;;;;5110649;28;20044;-69
2022/07/15 00:05:27;;;;;;;3.85;1.98;;;16.40;55.60;;;;;;5107133;28;20476;-70
2022/07/15 00:07:53;;;;;;;4.03;1.45;;;16.40;55.70;;;;;;5111697;28;20046;-69
2022/07/15 00:10:20;;;;;;;4.00;1.10;;;16.40;55.70;;;;;;5109622;28;20433;-69
2022/07/15 00:12:49;;;;;;;2.95;0.98;;;16.40;55.70;;;;;;5112872;28;20066;-69
2022/07/15 00:15:15;;;;;;;2.95;1.33;;;16.30;55.70;;;;;;5111162;28;20506;-69
2022/07/15 00:17:42;;;;;;;5.55;1.45;;;16.30;55.70;;;;;;5111672;28;20048;-69
2022/07/15 00:20:10;;;;;;;3.42;1.20;;;16.30;55.80;;;;;;5112363;28;20031;-69
2022/07/15 00:22:36;;;;;;;4.55;1.40;;;16.30;55.90;;;;;;5096772;28;20047;-69
2022/07/15 00:25:03;;;;;;;2.75;1.20;;;16.30;55.90;;;;;;5114913;28;20039;-69
2022/07/15 00:27:29;;;;;;;4.95;1.50;;;16.30;56.00;;;;;;5114670;28;20044;-64
2022/07/15 00:29:55;;;;;;;3.78;1.40;;;16.30;56.10;;;;;;5113680;28;20043;-64
2022/07/15 00:32:22;;;;;;;6.60;1.92;;;16.30;56.10;;;;;;5114457;28;20059;-64
2022/07/15 00:34:48;;;;;;;3.53;1.65;;;16.30;56.20;;;;;;5114030;28;20123;-64
2022/07/15 00:37:14;;;;;;;4.57;1.40;;;16.30;56.30;;;;;;5096892;28;20119;-64
2022/07/15 00:39:39;;;;;;;3.75;1.60;;;16.30;56.30;;;;;;5114433;28;20039;-64
2022/07/15 00:42:05;;;;;;;4.40;1.65;;;16.30;56.30;;;;;;5114745;28;20103;-64
2022/07/15 00:44:31;;;;;;;6.43;1.58;;;16.30;56.40;;;;;;5113222;28;20484;-64
2022/07/15 00:46:59;;;;;;;5.85;1.90;;;16.30;56.40;;;;;;5115355;28;20080;-64
2022/07/15 00:49:26;;;;;;;5.10;1.75;;;16.30;56.50;;;;;;5096924;28;20048;-64
2022/07/15 00:51:54;;;;;;;5.18;2.22;;;16.30;56.50;;;;;;5113993;28;20476;-64
2022/07/15 00:54:25;;;;;;;6.32;2.10;;;16.40;56.60;;;;;;5113990;28;20043;-64
2022/07/15 00:56:56;;;;;;;5.90;2.03;;;16.40;56.60;;;;;;5114077;28;20060;-64
2022/07/15 00:59:24;;;;;;;3.25;1.58;;;16.30;56.60;;;;;;5113217;28;20046;-64
2022/07/15 01:01:52;;;;;;;5.90;1.58;;;16.30;56.50;;;;;;5114073;28;20044;-69
2022/07/15 01:04:20;;;;;;;4.50;1.55;;;16.30;56.60;;;;;;5114200;28;20517;-69
2022/07/15 01:06:46;;;;;;;6.45;2.33;;;16.40;56.90;;;;;;5114247;28;20511;-69
2022/07/15 01:09:11;;;;;;;5.05;1.65;;;16.40;56.60;;;;;;5113778;28;20063;-69
2022/07/15 01:11:37;;;;;;;6.80;1.85;;;16.40;56.60;;;;;;5095565;28;20059;-69
2022/07/15 01:14:04;;;;;;;6.40;2.03;;;16.40;56.60;;;;;;5114124;28;20035;-69
2022/07/15 01:16:30;;;;;;;3.35;1.60;;;16.40;56.70;;;;;;5114893;28;20106;-69
2022/07/15 01:18:56;;;;;;;4.50;1.60;;;16.40;56.70;;;;;;5096217;28;20502;-69
2022/07/15 01:21:22;;;;;;;6.10;1.75;;;16.40;56.70;;;;;;5114004;28;20078;-69
2022/07/15 01:23:49;;;;;;;4.13;1.70;;;16.40;56.70;;;;;;5113166;28;20459;-69
2022/07/15 01:26:15;;;;;;;3.72;1.45;;;16.40;56.80;;;;;;5112337;28;20075;-69
2022/07/15 01:28:42;;;;;;;4.03;1.42;;;16.50;56.80;;;;;;5113223;28;20043;-69
2022/07/15 01:31:08;;;;;;;4.50;1.80;;;16.40;56.80;;;;;;5113432;28;20036;-69
2022/07/15 01:33:35;;;;;;;4.95;1.70;;;16.50;56.80;;;;;;5096617;28;20080;-69
2022/07/15 01:36:01;;;;;;;4.88;1.70;;;16.50;56.80;;;;;;5113861;28;20047;-69
2022/07/15 01:38:28;;;;;;;3.88;1.80;;;16.50;56.80;;;;;;5113662;28;20059;-69
2022/07/15 01:40:54;;;;;;;5.07;1.90;;;16.50;56.80;;;;;;5112163;28;20084;-69
2022/07/15 01:43:20;;;;;;;3.53;1.73;;;16.50;56.90;;;;;;5112794;28;20075;-69
2022/07/15 01:45:47;;;;;;;4.35;1.65;;;16.50;56.90;;;;;;5113631;28;20085;-69
2022/07/15 01:50:59;;;;;;;4.50;1.60;;;16.50;57.00;;;;;;5114442;28;20104;-69
2022/07/15 01:53:27;;;;;;;3.58;2.00;;;16.50;57.00;;;;;;5095939;28;20090;-70
2022/07/15 01:55:52;;;;;;;4.60;1.70;;;16.50;57.10;;;;;;5112308;28;20058;-70
2022/07/15 01:58:19;;;;;;;5.00;1.80;;;16.50;57.10;;;;;;5113099;28;20503;-62
2022/07/15 02:00:44;;;;;;;3.47;1.60;;;16.50;57.10;;;;;;5112215;28;20040;-63
2022/07/15 02:03:10;;;;;;;4.80;1.77;;;16.50;57.00;;;;;;5112727;28;20127;-63
2022/07/15 02:05:36;;;;;;;5.53;1.67;;;16.50;57.00;;;;;;5114087;28;20039;-63
2022/07/15 02:08:02;;;;;;;3.47;1.42;;;16.60;57.10;;;;;;5104571;28;20212;-63
2022/07/15 02:10:40;;;;;;;6.80;1.73;;;16.60;57.10;;;;;;5109112;28;20129;-68
2022/07/15 02:13:12;;;;;;;4.93;1.63;;;16.60;57.10;;;;;;5113673;28;20047;-68
2022/07/15 02:15:39;;;;;;;5.47;1.50;;;16.60;57.10;;;;;;5112937;28;20072;-68
2022/07/15 02:18:06;;;;;;;4.50;1.67;;;16.60;57.10;;;;;;5112774;28;20047;-68
2022/07/15 02:20:32;;;;;;;4.07;1.13;;;16.60;57.10;;;;;;5112370;28;20039;-68
2022/07/15 02:22:59;;;;;;;6.25;1.65;;;16.60;57.10;;;;;;5111454;28;20035;-69
2022/07/15 02:25:30;;;;;;;5.63;1.50;;;16.60;57.10;;;;;;5114475;28;20043;-69
2022/07/15 02:28:02;;;;;;;4.75;2.00;;;16.60;57.00;;;;;;5111633;28;20537;-69
2022/07/15 02:30:34;;;;;;;3.22;1.35;;;16.50;57.00;;;;;;5112667;28;20388;-69
2022/07/15 02:33:00;;;;;;;5.47;1.75;;;16.50;56.90;;;;;;5112509;28;20553;-69
2022/07/15 02:35:26;;;;;;;4.28;1.33;;;16.50;57.00;;;;;;5110818;28;20476;-68
2022/07/15 02:37:52;;;;;;;4.50;1.33;;;16.50;57.00;;;;;;5095354;28;20048;-69
2022/07/15 02:40:18;;;;;;;3.40;1.25;;;16.50;57.00;;;;;;5113437;28;20107;-69
2022/07/15 02:42:48;;;;;;;5.60;1.45;;;16.50;57.00;;;;;;5112996;28;20047;-70
2022/07/15 02:45:14;;;;;;;3.08;1.23;;;16.50;57.00;;;;;;5112991;28;20464;-69
2022/07/15 02:47:40;;;;;;;4.90;1.65;;;16.50;57.00;;;;;;5110945;28;20078;-68
2022/07/15 02:50:06;;;;;;;4.72;2.05;;;16.40;56.90;;;;;;5095332;28;20420;-68
2022/07/15 02:52:31;;;;;;;5.90;1.70;;;16.40;57.00;;;;;;5112386;28;20426;-68
2022/07/15 02:54:58;;;;;;;6.85;1.92;;;16.40;57.00;;;;;;5113537;28;20036;-68
2022/07/15 02:57:25;;;;;;;3.00;1.17;;;16.40;57.00;;;;;;5112280;28;20138;-68
2022/07/15 02:59:51;;;;;;;4.82;1.60;;;16.40;57.00;;;;;;5112870;28;20403;-63
2022/07/15 03:02:16;;;;;;;5.22;1.55;;;16.30;56.90;;;;;;5111264;28;20035;-63
2022/07/15 03:04:42;;;;;;;3.67;1.08;;;16.30;56.90;;;;;;5111250;28;20472;-63
2022/07/15 03:07:08;;;;;;;3.25;1.23;;;16.30;56.90;;;;;;5111962;28;20630;-64
2022/07/15 03:09:33;;;;;;;5.78;1.50;;;16.30;57.00;;;;;;5111602;28;20473;-63
2022/07/15 03:11:59;;;;;;;5.05;1.50;;;16.20;56.90;;;;;;5095091;28;20043;-64
2022/07/15 03:14:25;;;;;;;4.50;1.50;;;16.20;56.90;;;;;;5112939;28;20032;-64
2022/07/15 03:16:50;;;;;;;5.78;1.95;;;16.20;57.00;;;;;;5094247;28;20058;-63
2022/07/15 03:19:16;;;;;;;6.15;1.58;;;16.20;57.10;;;;;;5103159;28;20039;-64
2022/07/15 03:21:42;;;;;;;7.13;1.60;;;16.10;57.10;;;;;;5112296;28;20058;-64
2022/07/15 03:24:07;;;;;;;4.72;2.13;;;16.10;57.10;;;;;;5111030;28;20473;-63
2022/07/15 03:26:33;;;;;;;6.95;1.80;;;16.10;57.10;;;;;;5111367;28;20458;-63
2022/07/15 03:29:00;;;;;;;4.68;1.52;;;16.10;57.10;;;;;;5111515;28;20175;-64
2022/07/15 03:31:26;;;;;;;5.03;1.60;;;16.00;57.10;;;;;;5099576;28;20042;-64
2022/07/15 03:33:53;;;;;;;4.25;1.50;;;16.00;57.20;;;;;;5109092;28;20078;-64
2022/07/15 03:36:18;;;;;;;6.43;1.30;;;16.00;57.20;;;;;;5094793;28;20127;-69
2022/07/15 03:38:44;;;;;;;3.28;1.48;;;16.00;57.30;;;;;;5111229;28;20170;-69
2022/07/15 03:41:10;;;;;;;4.00;1.30;;;15.90;57.20;;;;;;5111737;28;20090;-69
2022/07/15 03:43:35;;;;;;;4.25;1.65;;;15.90;57.20;;;;;;5094392;28;20123;-64
2022/07/15 03:46:01;;;;;;;4.97;1.67;;;15.90;57.30;;;;;;5111973;28;20079;-64
2022/07/15 03:48:27;;;;;;;3.40;1.17;;;15.80;57.30;;;;;;5111789;28;20046;-64
2022/07/15 03:50:53;;;;;;;6.13;1.60;;;15.90;57.30;;;;;;5111437;28;20040;-64
2022/07/15 03:53:19;;;;;;;3.63;1.60;;;15.80;57.40;;;;;;5094799;28;20045;-64
2022/07/15 03:55:44;;;;;;;5.10;1.55;;;15.80;57.50;;;;;;5112825;28;20063;-64
2022/07/15 03:58:10;;;;;;;4.43;1.40;;;15.80;57.60;;;;;;5098532;28;20096;-64
2022/07/15 04:00:36;;;;;;;3.42;1.30;;;15.70;57.60;;;;;;5113362;28;20044;-64
2022/07/15 04:03:01;;;;;;;5.35;1.35;;;15.70;57.70;;;;;;5115110;28;20043;-69
2022/07/15 04:05:27;;;;;;;6.53;2.47;;;15.70;57.70;;;;;;5116287;28;20055;-69
2022/07/15 04:07:53;;;;;;;5.32;1.50;;;15.70;57.80;;;;;;5079322;28;20039;-69
2022/07/15 04:10:18;;;;;;;5.68;1.50;;;15.60;57.80;;;;;;5114978;28;20602;-69
2022/07/15 04:12:44;;;;;;;4.10;1.42;;;15.60;57.90;;;;;;5115481;28;20399;-69
2022/07/15 04:15:10;;;;;;;5.22;1.70;;;15.60;58.00;;;;;;5114811;28;20108;-70
2022/07/15 04:17:35;;;;;;;3.90;1.20;;;15.60;58.00;;;;;;5116495;28;20038;-69
2022/07/15 04:20:01;;;;;;;4.00;1.25;;;15.60;58.00;;;;;;5114334;28;20488;-69
2022/07/15 04:22:27;;;;;;;3.88;1.60;;;15.50;58.10;;;;;;5098043;28;20488;-64
2022/07/15 04:24:53;;;;;;;3.25;1.33;;;15.60;58.10;;;;;;5114865;28;20046;-64
2022/07/15 04:27:18;;;;;;;3.33;1.10;;;15.50;58.20;;;;;;5113948;28;20092;-64
2022/07/15 04:29:44;;;;;;;6.32;1.80;;;15.50;58.20;;;;;;5115802;28;20122;-64
2022/07/15 04:32:10;;;;;;;2.05;0.98;;;15.50;58.30;;;;;;5115056;28;20035;-69
2022/07/15 04:34:36;;;;;;;4.60;1.70;;;15.50;58.40;;;;;;5097718;28;20073;-69
2022/07/15 04:37:02;;;;;;;5.43;1.70;;;15.50;58.50;;;;;;5115615;27;20039;-69
2022/07/15 04:39:28;;;;;;;5.45;1.50;;;15.50;58.60;;;;;;5096427;28;20039;-69
2022/07/15 04:41:53;;;;;;;6.75;1.90;;;15.40;58.60;;;;;;5112676;28;20115;-69
2022/07/15 04:44:19;;;;;;;6.45;1.75;;;15.40;58.60;;;;;;5114851;28;20048;-69
2022/07/15 04:46:45;;;;;;;3.60;1.60;;;15.40;58.70;;;;;;5114672;28;20039;-69
2022/07/15 04:51:54;;;;;;;7.38;1.52;;;15.40;58.90;;;;;;5113970;28;20485;-69
2022/07/15 04:54:20;;;;;;;5.30;1.48;;;15.40;58.90;;;;;;5113910;28;20039;-69
2022/07/15 04:56:46;;;;;;;5.35;1.48;;;15.40;59.00;;;;;;5114443;28;20085;-69
2022/07/15 04:59:11;;;;;;;5.97;1.63;;;15.40;59.00;;;;;;5114055;28;20114;-69
2022/07/15 05:01:37;;;;;;;2.95;1.10;;;15.40;59.00;;;;;;5113485;28;20618;-69
2022/07/15 05:04:03;;;;;;;5.68;1.55;;;15.40;58.90;;;;;;5097085;28;20043;-69
2022/07/15 05:06:28;;;;;;;4.53;1.20;;;15.40;58.90;;;;;;5114228;28;20078;-69
2022/07/15 05:08:54;;;;;;;4.85;1.17;;;15.40;59.00;;;;;;5114027;27;20665;-69
2022/07/15 05:11:20;;;;;;;2.58;1.35;;;15.40;59.40;;;;;;5113482;28;20043;-70
2022/07/15 05:13:45;;;;;;;3.95;1.60;;;15.40;59.00;;;;;;5114405;28;20044;-69
2022/07/15 05:16:11;;;;;;;5.32;1.17;;;15.50;59.20;;;;;;5113009;28;20491;-69
2022/07/15 05:18:37;;;;;;;3.67;1.13;;;15.40;59.10;;;;;;5096911;28;20089;-69
2022/07/15 05:21:03;;;;;;;3.25;1.05;;;15.50;59.10;;;;;;5094836;28;20039;-70
2022/07/15 05:23:29;;;;;;;4.90;1.33;;;15.50;59.00;;;;;;5113942;28;20114;-70
2022/07/15 05:25:55;;;;;;;4.28;1.25;;;15.50;59.30;;;;;;5113755;28;20090;-70
2022/07/15 05:28:21;;;;;;;4.68;1.30;;;15.50;59.70;;;;;;5113993;28;20044;-70
2022/07/15 05:30:46;;;;;;;6.07;1.50;;;15.60;60.00;;;;;;5111805;28;20119;-69
2022/07/15 05:33:15;;;;;;;3.28;1.20;;;15.80;59.70;;;;;;5114093;28;20123;-70
2022/07/15 05:35:41;;;;;;;6.28;1.63;;;15.90;59.60;;;;;;5112744;28;20039;-64
2022/07/15 05:38:07;;;;;;;2.33;1.02;;;16.10;59.50;;;;;;5113515;28;20093;-64
2022/07/15 05:40:33;;;;;;;4.78;1.48;;;16.30;59.40;;;;;;5112150;28;20100;-64
2022/07/15 05:42:59;;;;;;;3.03;1.30;;;16.70;59.40;;;;;;5094643;28;20062;-64
2022/07/15 05:45:25;;;;;;;2.75;1.02;;;17.10;58.90;;;;;;5104372;28;20138;-64
2022/07/15 05:47:51;;;;;;;3.80;1.08;;;17.50;58.10;;;;;;5113427;28;20043;-65
2022/07/15 05:50:17;;;;;;;4.68;0.90;;;18.00;57.30;;;;;;5114591;28;20043;-65
2022/07/15 05:52:43;;;;;;;4.25;0.80;;;18.40;56.50;;;;;;5113670;28;20480;-69
2022/07/15 05:55:09;;;;;;;3.05;0.80;;;18.80;56.00;;;;;;5095969;28;20039;-69
2022/07/15 05:57:35;;;;;;;4.07;0.90;;;19.10;55.50;;;;;;5113331;28;20051;-70
2022/07/15 06:00:01;;;;;;;2.20;0.80;;;19.30;55.20;;;;;;5112771;28;20051;-70
2022/07/15 06:02:26;;;;;;;2.08;0.60;;;19.40;55.10;;;;;;5113329;28;20093;-70
2022/07/15 06:04:52;;;;;;;4.32;1.10;;;19.60;54.70;;;;;;5096682;28;20051;-70
2022/07/15 06:07:18;;;;;;;3.10;0.60;;;19.80;54.10;;;;;;5113199;28;20476;-70
2022/07/15 06:09:43;;;;;;;2.33;0.70;;;20.00;53.90;;;;;;5113584;28;20044;-65
2022/07/15 06:12:09;;;;;;;1.98;0.63;;;20.30;53.50;;;;;;5112039;28;20040;-65
2022/07/15 06:14:35;;;;;;;3.75;1.48;;;20.70;53.00;;;;;;5113047;28;20530;-65
2022/07/15 06:17:00;;;;;;;2.15;0.50;;;21.20;52.10;;;;;;5109905;28;20035;-65
2022/07/15 06:19:26;;;;;;;2.10;0.60;;;21.60;51.20;;;;;;5103141;28;20051;-70
2022/07/15 06:21:52;;;;;;;3.75;0.40;;;22.00;50.50;;;;;;5111387;28;20039;-70
2022/07/15 06:24:18;;;;;;;3.00;0.60;;;22.40;49.10;;;;;;5114214;28;20035;-70
2022/07/15 06:26:44;;;;;;;2.15;0.40;;;22.70;48.10;;;;;;5113979;28;20047;-71
2022/07/15 06:29:10;;;;;;;1.77;0.45;;;22.90;47.20;;;;;;5112469;28;20032;-70
2022/07/15 06:31:35;;;;;;;1.80;0.55;;;23.20;46.50;;;;;;5112477;28;20042;-70
2022/07/15 06:34:01;;;;;;;2.03;0.63;;;23.50;46.10;;;;;;5111988;28;20045;-71
2022/07/15 06:36:27;;;;;;;1.80;0.50;;;23.70;45.20;;;;;;5097185;28;20036;-65
2022/07/15 06:38:52;;;;;;;1.75;0.50;;;23.90;44.30;;;;;;5090475;28;20086;-65
2022/07/15 06:41:18;;;;;;;1.55;0.20;;;24.10;43.40;;;;;;5090817;28;20046;-65
2022/07/15 06:43:45;;;;;;;3.60;0.50;;;24.30;42.80;;;;;;5090488;28;20073;-65
2022/07/15 06:46:11;;;;;;;1.98;0.52;;;24.40;42.20;;;;;;5089985;28;20077;-65
2022/07/15 06:48:38;;;;;;;2.58;0.68;;;24.50;41.80;;;;;;5097758;28;20556;-70
2022/07/15 06:51:04;;;;;;;1.35;0.60;;;24.60;41.70;;;;;;5089135;28;20043;-65
2022/07/15 06:53:30;;;;;;;3.60;0.65;;;24.60;41.10;;;;;;5088861;28;20463;-64
2022/07/15 06:55:56;;;;;;;2.17;0.60;;;24.60;40.80;;;;;;5107750;28;20043;-64
2022/07/15 06:58:21;;;;;;;2.10;0.38;;;24.70;41.00;;;;;;5096647;28;20126;-68
2022/07/15 07:00:48;;;;;;;1.42;0.30;;;24.70;40.90;;;;;;5088778;28;20493;-65
2022/07/15 07:03:14;;;;;;;1.65;0.20;;;24.90;40.60;;;;;;5089577;28;20083;-65
2022/07/15 07:05:40;;;;;;;0.43;0.20;;;25.00;40.40;;;;;;5088804;28;20044;-64
2022/07/15 07:08:06;;;;;;;3.88;0.47;;;25.10;40.40;;;;;;5073586;28;20040;-64
2022/07/15 07:10:33;;;;;;;1.50;0.30;;;25.10;39.80;;;;;;5089732;28;20035;-64
2022/07/15 07:12:58;;;;;;;2.17;0.40;;;25.20;39.90;;;;;;5089688;28;20036;-64
2022/07/15 07:15:24;;;;;;;1.85;0.55;;;25.30;40.00;;;;;;5089071;28;20158;-64
2022/07/15 07:17:53;;;;;;;1.42;0.22;;;25.30;39.40;;;;;;5090113;28;20082;-64
2022/07/15 07:20:19;;;;;;;1.52;0.30;;;25.40;38.90;;;;;;5104530;28;20039;-64
2022/07/15 07:22:45;;;;;;;1.33;0.20;;;25.40;39.00;;;;;;5090444;28;20093;-65
2022/07/15 07:25:11;;;;;;;1.63;0.40;;;25.40;38.90;;;;;;5089547;28;20032;-64
2022/07/15 07:27:36;;;;;;;1.00;0.22;;;25.40;38.70;;;;;;5071570;28;20047;-64
2022/07/15 07:30:04;;;;;;;1.42;0.40;;;25.50;38.80;;;;;;5088025;28;20132;-64
2022/07/15 07:32:30;;;;;;;1.33;0.28;;;25.50;38.60;;;;;;5100091;28;20441;-64
2022/07/15 07:34:56;;;;;;;2.10;0.43;;;25.50;38.30;;;;;;5091975;28;20036;-64
2022/07/15 07:37:22;;;;;;;1.65;0.20;;;25.60;38.50;;;;;;5092884;28;20101;-64
2022/07/15 07:39:49;;;;;;;2.75;0.47;;;25.50;38.20;;;;;;5092687;28;20051;-64
2022/07/15 07:42:16;;;;;;;2.45;0.52;;;25.60;38.20;;;;;;5104867;28;20027;-64
2022/07/15 07:44:42;;;;;;;2.35;0.73;;;25.60;38.40;;;;;;5093252;28;20070;-64
2022/07/15 07:47:08;;;;;;;0.95;0.30;;;25.60;38.40;;;;;;5075306;28;20048;-64
2022/07/15 07:49:34;;;;;;;3.03;0.70;;;25.70;38.30;;;;;;5092581;28;20130;-64
2022/07/15 07:52:00;;;;;;;2.95;0.30;;;25.70;38.20;;;;;;5104204;28;20122;-64
2022/07/15 07:54:25;;;;;;;2.95;0.22;;;25.80;38.00;;;;;;5092205;28;20039;-64
2022/07/15 07:56:51;;;;;;;0.45;0.30;;;25.90;37.80;;;;;;5092951;28;20052;-64
2022/07/15 07:59:17;;;;;;;2.90;0.50;;;26.00;37.80;;;;;;5091553;28;20100;-64
2022/07/15 08:01:43;;;;;;;1.00;0.50;;;26.10;38.00;;;;;;5092357;28;20556;-64
2022/07/15 08:04:09;;;;;;;0.98;0.30;;;26.20;37.90;;;;;;5093934;28;20416;-64
2022/07/15 08:06:34;;;;;;;0.57;0.20;;;26.20;37.30;;;;;;5093106;28;20154;-64
2022/07/15 08:09:00;;;;;;;1.45;0.30;;;26.20;37.20;;;;;;5093818;28;20427;-64
2022/07/15 08:11:26;;;;;;;1.75;0.52;;;26.10;37.30;;;;;;5092674;28;20032;-64
2022/07/15 08:13:53;;;;;;;1.25;0.25;;;26.00;37.60;;;;;;5095385;28;20561;-64
2022/07/15 08:16:18;;;;;;;3.53;0.35;;;26.00;37.80;;;;;;5091419;28;20032;-64
2022/07/15 08:18:44;;;;;;;1.75;0.45;;;26.00;37.60;;;;;;5092891;28;20044;-65
2022/07/15 08:21:10;;;;;;;1.77;0.30;;;26.00;37.70;;;;;;5091318;28;20073;-64
2022/07/15 08:23:35;;;;;;;0.95;0.30;;;26.10;37.60;;;;;;5094781;28;20044;-65
2022/07/15 08:26:01;;;;;;;0.55;0.20;;;26.20;37.90;;;;;;5090558;28;20427;-65
2022/07/15 08:28:27;;;;;;;2.65;0.40;;;26.20;37.40;;;;;;5092398;28;20127;-65
2022/07/15 08:30:52;;;;;;;1.40;0.30;;;26.30;37.10;;;;;;5111682;28;20059;-65
2022/07/15 08:33:18;;;;;;;0.63;0.10;;;26.30;37.40;;;;;;5097671;28;20055;-65
2022/07/15 08:35:44;;;;;;;1.08;0.20;;;26.30;37.60;;;;;;5110427;28;20067;-65
2022/07/15 08:38:10;;;;;;;1.45;0.32;;;26.40;37.20;;;;;;5097579;28;20040;-65
2022/07/15 08:40:38;;;;;;;2.38;0.40;;;26.40;37.00;;;;;;5091556;28;20083;-65
2022/07/15 08:43:08;;;;;;;0.90;0.20;;;26.30;36.90;;;;;;5096685;28;20093;-65
2022/07/15 08:45:37;;;;;;;1.80;0.63;;;26.20;36.70;;;;;;5099925;28;20052;-65
2022/07/15 08:48:04;;;;;;;1.42;0.38;;;26.10;36.70;;;;;;5091597;28;20040;-65
2022/07/15 08:50:32;;;;;;;1.05;0.20;;;26.00;36.90;;;;;;5094780;28;20115;-63
2022/07/15 08:52:58;;;;;;;1.08;0.32;;;25.90;37.20;;;;;;5091589;28;20040;-63
2022/07/15 08:55:24;;;;;;;2.40;0.50;;;25.70;37.20;;;;;;5090888;28;20036;-63
2022/07/15 08:57:52;;;;;;;1.63;0.22;;;25.60;37.40;;;;;;5091748;28;20085;-63
2022/07/15 09:00:20;;;;;;;1.75;0.22;;;25.50;37.20;;;;;;5075771;28;20112;-62
2022/07/15 09:02:46;;;;;;;1.23;0.32;;;25.40;37.30;;;;;;5091475;28;20040;-63
2022/07/15 09:05:21;;;;;;;1.27;0.40;;;25.30;38.10;;;;;;5092886;28;20089;-63
2022/07/15 09:07:53;;;;;;;1.20;0.35;;;25.20;38.00;;;;;;5103921;28;20131;-63
2022/07/15 09:10:19;;;;;;;3.17;1.25;;;25.20;38.10;;;;;;5091404;28;20721;-63
2022/07/15 09:12:50;;;;;;;1.52;0.30;;;25.10;38.30;;;;;;5093920;28;20039;-63
2022/07/15 09:15:38;;;;;;;1.42;0.20;;;25.20;38.80;;;;;;5095273;28;20036;-63
2022/07/15 09:18:14;;;;;;;;;;;25.20;38.20;;;;;;5091830;28;20097;-69
2022/07/15 09:20:41;;;;;;;1.83;0.30;;;25.10;38.50;;;;;;5075897;28;19923;-70
2022/07/15 09:23:08;;;;;;;1.05;0.35;;;25.10;38.40;;;;;;5094201;28;20036;-69
2022/07/15 09:25:34;;;;;;;0.90;0.25;;;25.10;38.10;;;;;;5091263;28;20748;-69
2022/07/15 09:28:04;;;;;;;0.60;0.20;;;25.10;37.90;;;;;;5091656;28;20043;-69
2022/07/15 09:36:25;;;;;;;2.30;0.52;;;25.10;38.20;;;;;;5093381;28;20054;-69
2022/07/15 09:38:50;;;;;;;1.33;0.25;;;25.10;38.30;;;;;;5106235;28;20101;-69
2022/07/15 09:41:25;;;;;;;2.13;0.30;;;25.00;38.60;;;;;;5113014;28;20430;-70
2022/07/15 09:43:56;;;;;;;1.15;0.25;;;25.00;38.70;;;;;;5113711;28;20449;-69
2022/07/15 09:46:24;;;;;;;1.50;0.43;;;24.90;38.40;;;;;;5102758;28;21148;-69
2022/07/15 09:48:51;;;;;;;1.40;0.47;;;24.90;38.40;;;;;;5114092;28;20040;-69
2022/07/15 09:51:17;;;;;;;1.55;0.35;;;24.80;38.90;;;;;;5113480;28;20040;-69
2022/07/15 09:53:43;;;;;;;2.42;0.30;;;24.80;39.30;;;;;;5112062;28;20046;-69
2022/07/15 09:56:14;;;;;;;2.08;0.60;;;24.80;39.40;;;;;;5113757;28;20508;-69
2022/07/15 09:58:42;;;;;;;1.27;0.25;;;24.80;39.10;;;;;;5112834;28;20047;-69
2022/07/15 10:01:10;;;;;;;0.45;0.20;;;24.80;39.40;;;;;;5104180;28;20066;-69
2022/07/15 10:03:37;;;;;;;1.17;0.30;;;24.90;39.50;;;;;;5111436;28;20054;-69
2022/07/15 10:06:04;;;;;;;2.13;0.43;;;24.90;39.30;;;;;;5103936;28;20059;-69
2022/07/15 10:08:31;;;;;;;1.08;0.22;;;25.00;39.00;;;;;;5112358;28;20039;-69
2022/07/15 10:10:57;;;;;;;1.65;0.20;;;25.00;38.90;;;;;;5111648;28;20043;-69
2022/07/15 10:14:00;;;;;;;0.25;0.17;;;25.00;39.40;;;;;;5110727;27;20167;-69
2022/07/15 10:16:54;;;;;;;1.85;0.57;;;25.00;39.20;;;;;;5095211;28;20046;-69
2022/07/15 10:19:53;;;;;;;0.65;0.35;;;25.10;38.70;;;;;;5112023;28;20039;-70
2022/07/15 10:22:39;;;;;;;1.58;0.40;;;25.00;39.20;;;;;;5107796;28;20047;-70
2022/07/15 10:26:02;;;;;;;2.97;0.35;;;25.00;39.20;;;;;;5108380;28;20058;-69
2022/07/15 10:28:55;;;;;;;1.48;0.57;;;25.00;39.20;;;;;;5077766;28;20082;-69
2022/07/15 10:31:29;;;;;;;2.28;0.88;;;25.00;39.30;;;;;;5072801;28;20044;-72
2022/07/15 10:34:06;;;;;;;3.35;0.60;;;24.90;38.80;;;;;;5104897;28;20070;-73
2022/07/15 10:36:58;;;;;;;1.58;0.43;;;24.80;39.10;;;;;;5111473;28;20043;-73
2022/07/15 10:39:48;;;;;;;1.33;0.40;;;24.80;39.10;;;;;;5107201;28;20096;-73
2022/07/15 10:42:13;;;;;;;0.93;0.40;;;24.60;39.30;;;;;;5091264;28;20044;-72
2022/07/15 10:44:58;;;;;;;1.98;0.30;;;24.60;39.90;;;;;;5088670;28;20050;-72
2022/07/15 10:47:24;;;;;;;0.85;0.20;;;24.40;39.70;;;;;;5090390;28;20044;-72
2022/07/15 10:49:50;;;;;;;3.85;0.80;;;24.30;39.90;;;;;;5096816;28;20085;-72
2022/07/15 10:52:20;;;;;;;1.58;0.47;;;24.20;39.80;;;;;;5089308;28;20127;-72
2022/07/15 10:54:59;;;;;;;3.78;0.43;;;24.10;39.70;;;;;;5091337;28;20059;-73
2022/07/15 10:57:48;;;;;;;3.22;0.65;;;24.00;39.80;;;;;;5091363;28;20401;-72
2022/07/15 11:00:20;;;;;;;2.15;0.30;;;23.80;40.20;;;;;;5089062;28;20412;-72
2022/07/15 11:03:13;;;;;;;1.65;0.32;;;23.70;40.40;;;;;;5088635;28;20123;-72
2022/07/15 11:05:48;;;;;;;2.00;0.50;;;23.50;40.30;;;;;;5090927;28;20035;-72
2022/07/15 11:08:33;;;;;;;2.40;0.30;;;23.50;40.60;;;;;;5089216;28;20048;-72
2022/07/15 11:11:14;;;;;;;2.28;0.50;;;23.50;41.70;;;;;;5088755;28;20035;-73
2022/07/15 11:13:41;;;;;;;1.92;0.50;;;23.50;41.50;;;;;;5091932;28;20055;-72
2022/07/15 11:16:12;;;;;;;1.02;0.43;;;23.50;41.00;;;;;;5099653;28;20031;-72
2022/07/15 11:18:55;;;;;;;1.35;0.43;;;23.60;41.20;;;;;;5111051;28;20038;-72
2022/07/15 11:21:22;;;;;;;3.20;0.60;;;23.70;41.30;;;;;;5105466;28;20036;-72
2022/07/15 11:23:49;;;;;;;2.35;0.50;;;23.70;41.00;;;;;;5094229;28;20130;-66
2022/07/15 11:26:15;;;;;;;1.42;0.30;;;23.60;41.10;;;;;;5108128;28;20039;-72
2022/07/15 11:28:51;;;;;;;1.35;0.40;;;23.50;41.30;;;;;;5106189;28;20051;-72
2022/07/15 11:31:16;;;;;;;2.30;0.50;;;23.50;41.20;;;;;;5110911;28;20037;-71
2022/07/15 11:33:43;;;;;;;2.42;0.40;;;23.40;41.20;;;;;;5111930;28;20047;-72
2022/07/15 11:36:18;;;;;;;1.13;0.38;;;23.40;41.50;;;;;;5111038;28;20388;-72
2022/07/15 11:38:43;;;;;;;1.83;0.30;;;23.50;41.50;;;;;;5111348;28;20051;-73
2022/07/15 11:46:46;;;;;;;1.23;0.38;;;23.60;41.40;;;;;;5096698;28;19930;-72
2022/07/15 11:49:29;;;;;;;1.10;0.50;;;23.70;41.70;;;;;;5099446;28;20120;-73
2022/07/15 11:51:56;;;;;;;1.30;0.40;;;23.70;40.80;;;;;;5095444;28;20051;-72
2022/07/15 11:54:22;;;;;;;1.52;0.20;;;23.70;40.50;;;;;;5093272;28;20040;-72
2022/07/15 11:56:56;;;;;;;2.88;0.50;;;23.80;40.80;;;;;;5094781;28;20069;-72
2022/07/15 11:59:21;;;;;;;2.58;0.77;;;23.80;40.20;;;;;;5093910;28;20503;-72
2022/07/15 12:01:47;;;;;;;2.38;0.32;;;23.80;40.40;;;;;;5094932;28;20040;-72
2022/07/15 12:04:13;;;;;;;1.65;0.40;;;23.80;40.30;;;;;;5097981;28;20079;-72
2022/07/15 12:06:39;;;;;;;1.65;0.20;;;23.80;39.80;;;;;;5093259;28;20058;-72
2022/07/15 12:09:08;;;;;;;0.70;0.22;;;23.80;39.80;;;;;;5096165;28;20398;-73
2022/07/15 12:11:36;;;;;;;4.15;0.60;;;23.80;39.60;;;;;;5076151;28;20043;-72
2022/07/15 12:14:28;;;;;;;0.73;0.30;;;23.80;40.00;;;;;;5094494;28;20044;-73
2022/07/15 12:16:54;;;;;;;1.02;0.30;;;23.70;39.90;;;;;;5094306;28;20519;-73
2022/07/15 12:19:29;;;;;;;0.73;0.30;;;23.70;40.10;;;;;;5096100;28;20595;-72
2022/07/15 12:21:57;;;;;;;1.25;0.20;;;23.70;40.20;;;;;;5101040;28;20088;-73
2022/07/15 12:24:36;;;;;;;1.27;0.50;;;23.70;40.40;;;;;;5098675;28;20508;-73
2022/07/15 12:27:02;;;;;;;1.50;0.40;;;23.70;39.90;;;;;;5101190;27;20056;-74
2022/07/15 12:29:32;;;;;;;1.30;0.22;;;23.70;39.80;;;;;;5099541;28;20109;-73
2022/07/15 12:31:59;;;;;;;1.92;0.28;;;23.80;39.70;;;;;;5099801;28;20032;-73
2022/07/15 12:34:46;;;;;;;2.38;0.38;;;23.80;39.40;;;;;;5097443;28;20059;-72
2022/07/15 12:37:35;;;;;;;0.88;0.30;;;23.90;39.90;;;;;;5096425;27;20127;-73
2022/07/15 12:40:09;;;;;;;0.45;0.17;;;24.00;39.70;;;;;;5092412;28;20066;-74
2022/07/15 12:42:44;;;;;;;1.08;0.28;;;24.00;39.80;;;;;;5100089;28;20605;-73
2022/07/15 12:45:22;;;;;;;1.33;0.30;;;24.00;39.80;;;;;;5098050;28;20043;-73
2022/07/15 12:48:01;;;;;;;1.85;0.50;;;24.10;39.50;;;;;;5096445;28;20112;-72
2022/07/15 12:50:46;;;;;;;1.88;0.30;;;24.10;39.40;;;;;;5095739;28;20047;-73
2022/07/15 12:53:12;;;;;;;1.30;0.45;;;24.00;39.40;;;;;;5099286;28;20039;-72
2022/07/15 12:55:45;;;;;;;2.05;0.40;;;24.00;39.50;;;;;;5097374;28;20040;-72
2022/07/15 12:58:14;;;;;;;1.70;0.40;;;24.00;39.90;;;;;;5095993;28;20052;-73
2022/07/15 13:00:40;;;;;;;1.65;0.25;;;23.90;40.00;;;;;;5099595;27;20400;-72
2022/07/15 13:03:07;;;;;;;3.47;0.40;;;24.00;40.00;;;;;;5095052;28;20116;-73
2022/07/15 13:05:44;;;;;;;1.23;0.30;;;24.00;39.90;;;;;;5092187;28;20044;-73
2022/07/15 13:08:16;;;;;;;1.23;0.20;;;23.90;39.60;;;;;;5076490;28;20512;-73
2022/07/15 13:10:45;;;;;;;2.75;0.40;;;23.80;39.70;;;;;;5096096;28;20039;-74